Time;durP1;ratioP1;P1;durP2;ratioP2;P2;SDS_P1;SDS_P2;PMS_P1;PMS_P2;Temp;Humidity;BMP_temperature;BMP_pressure;BME280_temperature;BME280_humidity;BME280_pressure;Samples;Min_cycle;Max_cycle;Signal;HPM_P1;HPM_P2
2023/05/26 00:01:14;;;;;;;13.82;7.68;;;;;;;7.43;100.00;99483.03;4159581;28;20040;-72
2023/05/26 00:03:16;;;;;;;13.40;7.72;;;;;;;7.40;100.00;99480.97;4159234;28;20132;-72
2023/05/26 00:05:20;;;;;;;12.88;8.00;;;;;;;7.36;100.00;99489.06;4168955;28;20599;-72
2023/05/26 00:07:20;;;;;;;12.07;7.35;;;;;;;7.32;100.00;99471.63;4173517;28;20037;-72
2023/05/26 00:09:21;;;;;;;13.15;7.40;;;;;;;7.32;100.00;99477.13;4175016;28;20045;-72
2023/05/26 00:11:21;;;;;;;18.58;7.57;;;;;;;7.28;100.00;99477.00;4173908;28;20399;-72
2023/05/26 00:13:21;;;;;;;16.50;7.90;;;;;;;7.28;100.00;99476.16;4163007;28;20080;-72
2023/05/26 00:15:22;;;;;;;14.68;8.18;;;;;;;7.27;100.00;99480.84;4168028;28;20041;-72
2023/05/26 00:17:22;;;;;;;10.25;7.03;;;;;;;7.26;100.00;99482.00;4158903;28;20037;-72
2023/05/26 00:19:24;;;;;;;12.43;7.07;;;;;;;7.23;100.00;99484.63;4159744;28;20052;-72
2023/05/26 00:21:25;;;;;;;13.00;6.97;;;;;;;7.25;100.00;99482.34;4173329;28;20387;-72
2023/05/26 00:23:25;;;;;;;9.32;6.70;;;;;;;7.17;100.00;99472.97;4173451;28;20175;-72
2023/05/26 00:25:25;;;;;;;11.43;6.88;;;;;;;7.12;100.00;99473.19;4164527;28;20136;-72
2023/05/26 00:27:25;;;;;;;9.52;6.50;;;;;;;7.13;100.00;99476.75;4159254;28;20609;-72
2023/05/26 00:29:26;;;;;;;9.93;6.75;;;;;;;7.10;100.00;99475.44;4159077;28;20128;-72
2023/05/26 00:31:26;;;;;;;10.63;7.65;;;;;;;7.00;100.00;99475.81;4159400;28;20080;-72
2023/05/26 00:33:26;;;;;;;13.50;8.50;;;;;;;6.93;100.00;99470.81;4165005;28;20056;-72
2023/05/26 00:35:27;;;;;;;12.13;6.78;;;;;;;6.83;100.00;99476.69;4164262;28;20104;-72
2023/05/26 00:37:27;;;;;;;9.98;6.65;;;;;;;6.80;100.00;99469.09;4159291;28;20466;-72
2023/05/26 00:39:29;;;;;;;11.25;6.80;;;;;;;6.81;100.00;99480.91;4159052;28;20045;-72
2023/05/26 00:41:30;;;;;;;14.35;7.38;;;;;;;6.75;100.00;99472.00;4158624;28;20057;-72
2023/05/26 00:43:30;;;;;;;10.57;7.30;;;;;;;6.74;100.00;99475.91;4166794;28;20041;-72
2023/05/26 00:45:30;;;;;;;9.07;6.22;;;;;;;6.73;100.00;99475.09;4161356;28;20521;-72
2023/05/26 00:47:31;;;;;;;14.30;7.00;;;;;;;6.67;100.00;99468.16;4158492;28;20573;-72
2023/05/26 00:49:31;;;;;;;13.27;7.25;;;;;;;6.64;100.00;99476.25;4158902;28;20038;-72
2023/05/26 00:51:33;;;;;;;11.45;7.00;;;;;;;6.58;100.00;99469.31;4172512;28;20087;-72
2023/05/26 00:53:35;;;;;;;11.02;6.97;;;;;;;6.51;100.00;99466.25;4172935;28;20045;-72
2023/05/26 00:55:36;;;;;;;10.00;6.60;;;;;;;6.49;100.00;99463.84;4161419;28;20038;-72
2023/05/26 00:57:37;;;;;;;12.25;6.90;;;;;;;6.48;100.00;99457.53;4169828;28;20045;-72
2023/05/26 00:59:37;;;;;;;12.77;6.32;;;;;;;6.47;100.00;99464.16;4163695;28;20333;-72
2023/05/26 01:01:38;;;;;;;13.05;7.30;;;;;;;6.45;100.00;99463.69;4158523;28;20041;-72
2023/05/26 01:03:39;;;;;;;11.15;7.15;;;;;;;6.39;100.00;99459.50;4157778;28;20045;-72
2023/05/26 01:05:39;;;;;;;10.50;6.30;;;;;;;6.38;100.00;99457.09;4164255;28;20272;-72
2023/05/26 01:07:41;;;;;;;10.80;6.80;;;;;;;6.43;100.00;99459.63;4173574;28;20045;-72
2023/05/26 01:09:41;;;;;;;10.18;6.28;;;;;;;6.38;100.00;99463.38;4162030;28;20120;-72
2023/05/26 01:11:51;;;;;;;10.25;6.57;;;;;;;6.32;100.00;99458.38;4165097;28;20061;-72
2023/05/26 01:13:54;;;;;;;11.45;6.85;;;;;;;6.27;100.00;99464.84;4167780;28;20383;-72
2023/05/26 01:16:02;;;;;;;9.55;6.70;;;;;;;6.38;100.00;99468.88;4162942;28;20528;-72
2023/05/26 01:18:12;;;;;;;11.15;7.03;;;;;;;6.55;100.00;99476.28;4162967;28;20536;-72
2023/05/26 01:20:17;;;;;;;11.68;7.43;;;;;;;6.58;100.00;99463.81;4160893;28;20029;-72
2023/05/26 01:22:36;;;;;;;9.68;6.63;;;;;;;6.58;100.00;99472.06;4162855;28;20408;-72
2023/05/26 01:24:46;;;;;;;9.93;6.82;;;;;;;6.66;100.00;99463.00;4161460;28;20053;-72
2023/05/26 01:27:01;;;;;;;11.10;7.30;;;;;;;6.68;100.00;99464.25;4162521;28;20045;-72
2023/05/26 01:29:08;;;;;;;11.82;7.97;;;;;;;6.67;100.00;99465.41;4169499;28;20397;-72
2023/05/26 01:31:09;;;;;;;12.63;7.70;;;;;;;6.66;100.00;99463.00;4173170;28;20049;-72
2023/05/26 01:33:10;;;;;;;11.87;8.17;;;;;;;6.65;100.00;99464.13;4167110;28;20435;-72
2023/05/26 01:35:11;;;;;;;14.52;8.75;;;;;;;6.61;100.00;99474.16;4167532;28;20041;-72
2023/05/26 01:37:11;;;;;;;13.77;8.50;;;;;;;6.57;100.00;99467.69;4165910;28;20041;-72
2023/05/26 01:39:13;;;;;;;12.20;7.97;;;;;;;6.50;100.00;99465.44;4157760;28;20140;-72
2023/05/26 01:41:26;;;;;;;12.23;7.50;;;;;;;6.42;100.00;99467.06;4168417;28;20207;-72
2023/05/26 01:43:43;;;;;;;11.98;7.15;;;;;;;6.31;100.00;99470.50;4163878;28;20478;-72
2023/05/26 01:45:48;;;;;;;12.65;8.23;;;;;;;6.19;100.00;99476.66;4162329;28;20116;-72
2023/05/26 01:47:55;;;;;;;13.48;8.23;;;;;;;6.11;100.00;99470.03;4157055;28;20041;-72
2023/05/26 01:50:01;;;;;;;11.68;7.70;;;;;;;6.07;100.00;99471.81;4157858;28;20059;-72
2023/05/26 01:52:09;;;;;;;9.60;7.18;;;;;;;6.02;100.00;99476.66;4157799;28;20056;-72
2023/05/26 01:54:11;;;;;;;13.90;7.85;;;;;;;5.93;100.00;99475.84;4157447;28;20122;-73
2023/05/26 01:56:12;;;;;;;13.25;8.52;;;;;;;5.86;100.00;99479.03;4164843;28;20033;-72
2023/05/26 01:58:14;;;;;;;9.75;7.10;;;;;;;5.78;100.00;99477.91;4159235;28;20028;-72
2023/05/26 02:00:23;;;;;;;15.07;8.00;;;;;;;5.74;100.00;99481.63;4157939;28;20201;-72
2023/05/26 02:02:23;;;;;;;14.02;7.93;;;;;;;5.72;100.00;99481.97;4158248;28;20040;-72
2023/05/26 02:04:24;;;;;;;16.42;8.63;;;;;;;5.73;100.00;99474.53;4157722;28;20037;-72
2023/05/26 02:06:26;;;;;;;15.38;9.60;;;;;;;5.63;100.00;99475.66;4158004;28;20052;-72
2023/05/26 02:08:26;;;;;;;13.05;8.35;;;;;;;5.69;100.00;99490.00;4156929;28;20382;-72
2023/05/26 02:10:27;;;;;;;13.52;8.20;;;;;;;5.67;100.00;99481.28;4170687;28;20033;-72
2023/05/26 02:12:27;;;;;;;13.95;7.68;;;;;;;5.73;100.00;99491.00;4162759;28;20045;-72
2023/05/26 02:14:28;;;;;;;12.90;7.18;;;;;;;5.80;100.00;99486.66;4159262;28;20049;-72
2023/05/26 02:16:28;;;;;;;13.07;8.13;;;;;;;5.82;100.00;99487.13;4172338;28;20053;-72
2023/05/26 02:18:28;;;;;;;12.65;8.13;;;;;;;5.79;100.00;99484.19;4173358;28;20082;-72
2023/05/26 02:20:28;;;;;;;17.08;7.78;;;;;;;5.72;100.00;99481.16;4172501;28;20548;-72
2023/05/26 02:22:29;;;;;;;12.00;8.20;;;;;;;5.69;100.00;99487.28;4157213;28;20045;-72
2023/05/26 02:24:29;;;;;;;17.20;8.85;;;;;;;5.68;100.00;99486.47;4158245;28;20053;-72
2023/05/26 02:26:29;;;;;;;16.52;8.98;;;;;;;5.62;100.00;99480.31;4157191;28;20045;-72
2023/05/26 02:28:30;;;;;;;11.98;7.43;;;;;;;5.67;100.00;99484.03;4157710;28;20496;-72
2023/05/26 02:30:30;;;;;;;13.90;8.45;;;;;;;5.73;100.00;99486.31;4163384;28;20243;-72
2023/05/26 02:32:30;;;;;;;15.35;8.30;;;;;;;5.74;100.00;99473.41;4169328;28;20175;-72
2023/05/26 02:34:31;;;;;;;13.05;7.95;;;;;;;5.75;100.00;99481.31;4157631;28;20381;-72
2023/05/26 02:36:31;;;;;;;13.02;8.05;;;;;;;5.69;100.00;99482.59;4157399;28;20054;-72
2023/05/26 02:38:32;;;;;;;11.02;7.80;;;;;;;5.71;100.00;99485.84;4157982;28;20049;-72
2023/05/26 02:40:32;;;;;;;12.68;7.90;;;;;;;5.77;100.00;99480.97;4157436;28;20053;-72
2023/05/26 02:42:32;;;;;;;13.73;7.78;;;;;;;5.86;100.00;99490.03;4157961;28;20042;-72
2023/05/26 02:44:33;;;;;;;19.80;8.10;;;;;;;5.72;100.00;99481.16;4171809;28;20043;-72
2023/05/26 02:46:33;;;;;;;13.15;7.57;;;;;;;5.65;100.00;99476.13;4158412;28;20049;-72
2023/05/26 02:48:33;;;;;;;15.73;7.55;;;;;;;5.54;100.00;99483.84;4157573;28;20045;-72
2023/05/26 02:50:34;;;;;;;12.43;8.70;;;;;;;5.47;100.00;99480.78;4157706;28;20131;-72
2023/05/26 02:52:34;;;;;;;19.83;7.95;;;;;;;5.36;100.00;99472.03;4157904;28;20128;-72
2023/05/26 02:54:34;;;;;;;11.98;6.97;;;;;;;5.35;100.00;99484.13;4172281;28;20041;-72
2023/05/26 02:56:35;;;;;;;16.65;8.20;;;;;;;5.26;100.00;99485.25;4172407;28;20095;-72
2023/05/26 02:58:35;;;;;;;12.80;7.35;;;;;;;5.23;100.00;99494.13;4168629;28;20486;-72
2023/05/26 03:00:35;;;;;;;17.63;7.78;;;;;;;5.13;100.00;99486.16;4157446;28;20045;-72
2023/05/26 03:02:36;;;;;;;18.20;7.85;;;;;;;5.06;100.00;99484.69;4157704;28;20115;-72
2023/05/26 03:04:36;;;;;;;17.00;7.65;;;;;;;5.04;100.00;99480.63;4171891;28;20045;-72
2023/05/26 03:06:36;;;;;;;14.55;8.38;;;;;;;5.06;100.00;99483.91;4172690;28;20053;-72
2023/05/26 03:08:37;;;;;;;14.60;8.45;;;;;;;4.99;100.00;99481.59;4171865;28;20127;-72
2023/05/26 03:10:39;;;;;;;12.93;7.82;;;;;;;4.93;100.00;99480.13;4172006;28;20109;-72
2023/05/26 03:12:40;;;;;;;14.45;8.55;;;;;;;4.90;100.00;99482.69;4169663;28;20091;-72
2023/05/26 03:14:40;;;;;;;14.40;8.38;;;;;;;4.92;100.00;99474.97;4169873;28;20045;-72
2023/05/26 03:16:40;;;;;;;12.70;7.47;;;;;;;4.91;100.00;99479.63;4161652;28;20551;-72
2023/05/26 03:18:40;;;;;;;13.88;8.25;;;;;;;4.89;100.00;99483.81;4171863;28;20075;-72
2023/05/26 03:20:41;;;;;;;13.82;8.63;;;;;;;4.84;100.00;99473.78;4162493;28;20077;-72
2023/05/26 03:22:41;;;;;;;15.30;8.27;;;;;;;4.79;100.00;99480.22;4167015;28;20152;-72
2023/05/26 03:24:41;;;;;;;10.75;7.80;;;;;;;4.73;100.00;99477.94;4160130;28;20045;-73
2023/05/26 03:26:42;;;;;;;15.35;7.95;;;;;;;4.69;100.00;99483.22;4160052;28;20082;-73
2023/05/26 03:28:42;;;;;;;16.45;9.10;;;;;;;4.70;100.00;99490.31;4159850;28;20470;-72
2023/05/26 03:30:42;;;;;;;10.88;8.00;;;;;;;4.73;100.00;99480.69;4158914;28;20125;-72
2023/05/26 03:32:43;;;;;;;15.55;8.35;;;;;;;4.72;100.00;99488.09;4159667;28;20053;-72
2023/05/26 03:34:44;;;;;;;14.02;7.95;;;;;;;4.73;100.00;99489.72;4165849;28;20124;-72
2023/05/26 03:36:45;;;;;;;12.40;8.20;;;;;;;4.72;100.00;99495.53;4160183;28;20476;-72
2023/05/26 03:38:46;;;;;;;13.05;7.85;;;;;;;4.70;100.00;99495.81;4160273;28;20041;-72
2023/05/26 03:40:46;;;;;;;11.43;7.90;;;;;;;4.70;100.00;99493.06;4157451;28;20073;-72
2023/05/26 03:42:46;;;;;;;12.32;8.43;;;;;;;4.68;100.00;99492.56;4159731;28;20037;-72
2023/05/26 03:44:47;;;;;;;14.13;8.15;;;;;;;4.66;100.00;99488.53;4159700;28;20045;-72
2023/05/26 03:46:47;;;;;;;14.20;7.90;;;;;;;4.62;100.00;99495.75;4159518;28;20045;-72
2023/05/26 03:48:47;;;;;;;14.35;8.45;;;;;;;4.61;100.00;99494.16;4160117;28;20100;-72
2023/05/26 03:50:47;;;;;;;12.95;8.35;;;;;;;4.60;100.00;99492.53;4158986;28;20077;-72
2023/05/26 03:52:48;;;;;;;13.10;8.80;;;;;;;4.61;100.00;99485.94;4158303;28;20374;-72
2023/05/26 03:54:49;;;;;;;14.32;8.15;;;;;;;4.70;100.00;99487.59;4158028;28;20084;-72
2023/05/26 03:56:49;;;;;;;13.43;7.88;;;;;;;4.75;100.00;99492.13;4159751;28;20417;-72
2023/05/26 03:58:50;;;;;;;12.02;8.02;;;;;;;4.82;100.00;99486.22;4160788;28;20061;-72
2023/05/26 04:00:50;;;;;;;12.90;7.82;;;;;;;4.89;100.00;99486.56;4159386;28;20037;-72
2023/05/26 04:02:50;;;;;;;11.23;8.10;;;;;;;4.89;100.00;99490.13;4161067;28;20068;-72
2023/05/26 04:04:50;;;;;;;15.88;8.27;;;;;;;4.95;100.00;99504.47;4160455;28;20103;-72
2023/05/26 04:06:52;;;;;;;13.15;8.98;;;;;;;4.95;100.00;99499.81;4159763;28;20064;-72
2023/05/26 04:08:52;;;;;;;11.25;6.85;;;;;;;4.97;100.00;99500.31;4160603;28;20500;-72
2023/05/26 04:10:52;;;;;;;10.73;8.00;;;;;;;5.02;100.00;99500.16;4161577;28;20045;-72
2023/05/26 04:12:52;;;;;;;13.57;8.75;;;;;;;5.10;100.00;99506.00;4159380;28;20053;-72
2023/05/26 04:14:53;;;;;;;13.73;7.80;;;;;;;5.12;100.00;99492.78;4159148;28;20065;-72
2023/05/26 04:16:53;;;;;;;13.80;8.52;;;;;;;5.15;100.00;99501.19;4159350;28;20199;-72
2023/05/26 04:18:53;;;;;;;12.82;8.50;;;;;;;5.20;100.00;99511.19;4160495;28;20057;-72
2023/05/26 04:20:54;;;;;;;17.05;9.32;;;;;;;5.19;100.00;99504.91;4158977;28;20033;-72
2023/05/26 04:22:54;;;;;;;13.82;7.85;;;;;;;5.24;100.00;99506.72;4159155;28;20489;-72
2023/05/26 04:24:55;;;;;;;12.50;8.57;;;;;;;5.33;100.00;99513.03;4158884;28;20068;-72
2023/05/26 04:26:55;;;;;;;14.52;9.23;;;;;;;5.33;100.00;99516.59;4160208;28;20140;-72
2023/05/26 04:28:56;;;;;;;18.05;9.43;;;;;;;5.39;100.00;99509.03;4160259;28;20045;-72
2023/05/26 04:30:56;;;;;;;12.50;7.80;;;;;;;5.49;100.00;99522.44;4159231;28;20033;-72
2023/05/26 04:32:57;;;;;;;12.77;8.07;;;;;;;5.59;100.00;99527.63;4159908;28;20496;-72
2023/05/26 04:34:57;;;;;;;12.73;8.55;;;;;;;5.73;100.00;99516.53;4158064;28;20034;-72
2023/05/26 04:37:04;;;;;;;16.00;9.55;;;;;;;5.82;100.00;99520.09;4159166;28;20494;-72
2023/05/26 04:39:07;;;;;;;16.23;9.15;;;;;;;5.91;100.00;99525.63;4158834;28;20694;-72
2023/05/26 04:41:08;;;;;;;15.52;9.45;;;;;;;6.05;100.00;99517.25;4158612;28;20422;-72
2023/05/26 04:43:10;;;;;;;16.00;9.23;;;;;;;6.12;100.00;99523.88;4158867;28;20048;-72
2023/05/26 04:45:11;;;;;;;13.70;8.40;;;;;;;6.19;100.00;99517.88;4161216;28;20080;-72
2023/05/26 04:47:12;;;;;;;12.77;7.80;;;;;;;6.29;100.00;99524.97;4159288;28;20045;-72
2023/05/26 04:49:12;;;;;;;12.05;8.30;;;;;;;6.32;100.00;99524.34;4158925;28;20087;-72
2023/05/26 04:51:13;;;;;;;13.20;8.00;;;;;;;6.37;100.00;99527.75;4158945;28;20049;-72
2023/05/26 04:53:13;;;;;;;11.85;8.43;;;;;;;6.40;100.00;99527.09;4161706;28;20037;-72
2023/05/26 04:55:13;;;;;;;13.13;9.00;;;;;;;6.48;100.00;99531.75;4166558;28;20486;-72
2023/05/26 04:57:14;;;;;;;14.38;8.98;;;;;;;6.58;100.00;99538.88;4174644;28;20037;-72
2023/05/26 04:59:17;;;;;;;15.98;9.40;;;;;;;6.64;100.00;99525.75;4173403;28;20037;-72
2023/05/26 05:01:17;;;;;;;16.02;8.93;;;;;;;6.72;100.00;99531.25;4162224;28;20498;-72
2023/05/26 05:03:17;;;;;;;12.30;8.52;;;;;;;6.83;100.00;99528.94;4164522;28;20041;-71
2023/05/26 05:05:18;;;;;;;15.32;8.90;;;;;;;6.97;100.00;99534.25;4159715;28;20059;-72
2023/05/26 05:07:18;;;;;;;13.50;8.23;;;;;;;7.02;100.00;99536.81;4160001;28;20051;-72
2023/05/26 05:09:18;;;;;;;14.32;9.38;;;;;;;7.11;100.00;99525.78;4177573;28;20041;-72
2023/05/26 05:11:19;;;;;;;13.45;7.75;;;;;;;7.14;100.00;99517.69;4174149;28;20132;-72
2023/05/26 05:13:19;;;;;;;13.35;8.63;;;;;;;7.23;100.00;99523.97;4163850;28;20053;-72
2023/05/26 05:15:20;;;;;;;13.13;8.48;;;;;;;7.33;100.00;99533.78;4172348;28;20441;-72
2023/05/26 05:17:20;;;;;;;15.50;8.13;;;;;;;7.44;100.00;99529.50;4166610;28;20141;-72
2023/05/26 05:19:21;;;;;;;15.07;8.70;;;;;;;7.55;100.00;99535.47;4161132;28;20036;-72
2023/05/26 05:21:21;;;;;;;13.65;9.50;;;;;;;7.68;100.00;99528.91;4163069;28;20049;-72
2023/05/26 05:23:21;;;;;;;15.52;9.30;;;;;;;7.76;100.00;99533.56;4163386;28;20041;-72
2023/05/26 05:25:22;;;;;;;16.55;9.30;;;;;;;7.87;100.00;99536.75;4168738;28;20059;-72
2023/05/26 05:27:22;;;;;;;14.73;9.38;;;;;;;7.94;100.00;99534.25;4164347;28;20056;-72
2023/05/26 05:29:22;;;;;;;16.40;9.50;;;;;;;8.02;100.00;99538.06;4158392;28;20604;-72
2023/05/26 05:31:23;;;;;;;16.15;9.73;;;;;;;8.18;100.00;99547.38;4158437;28;20033;-72
2023/05/26 05:33:23;;;;;;;19.35;9.20;;;;;;;8.27;100.00;99550.06;4162983;28;20068;-72
2023/05/26 05:35:23;;;;;;;22.98;10.30;;;;;;;8.32;100.00;99553.41;4172725;28;20075;-72
2023/05/26 05:37:23;;;;;;;15.82;9.73;;;;;;;8.41;100.00;99550.63;4165368;28;20136;-72
2023/05/26 05:39:24;;;;;;;17.30;9.95;;;;;;;8.54;100.00;99555.06;4166505;28;20060;-72
2023/05/26 05:41:24;;;;;;;21.38;10.32;;;;;;;8.57;100.00;99559.88;4172857;28;20086;-72
2023/05/26 05:43:26;;;;;;;16.15;10.20;;;;;;;8.58;100.00;99544.94;4171497;28;20049;-72
2023/05/26 05:45:26;;;;;;;22.52;10.60;;;;;;;8.69;100.00;99548.13;4166225;28;20025;-72
2023/05/26 05:47:26;;;;;;;17.45;9.65;;;;;;;8.78;100.00;99548.03;4171623;28;20471;-72
2023/05/26 05:49:27;;;;;;;17.42;10.18;;;;;;;8.92;100.00;99559.56;4171297;28;20477;-72
2023/05/26 05:51:27;;;;;;;17.45;10.23;;;;;;;9.05;100.00;99560.41;4163497;28;20120;-72
2023/05/26 05:53:27;;;;;;;24.65;10.15;;;;;;;9.20;100.00;99568.03;4156392;28;20543;-72
2023/05/26 05:55:28;;;;;;;20.67;11.10;;;;;;;9.28;100.00;99559.66;4157225;28;20037;-72
2023/05/26 05:57:28;;;;;;;15.85;9.80;;;;;;;9.41;100.00;99573.47;4157629;28;20060;-72
2023/05/26 05:59:28;;;;;;;14.50;9.23;;;;;;;9.50;100.00;99563.91;4157786;28;20112;-72
2023/05/26 06:01:29;;;;;;;19.20;10.13;;;;;;;9.57;100.00;99566.09;4158120;28;20126;-72
2023/05/26 06:03:29;;;;;;;20.55;9.57;;;;;;;9.68;100.00;99570.03;4166562;28;20481;-72
2023/05/26 06:05:29;;;;;;;14.52;8.73;;;;;;;9.76;100.00;99577.41;4171680;28;20084;-72
2023/05/26 06:07:30;;;;;;;15.10;7.97;;;;;;;9.79;100.00;99573.94;4173162;28;20052;-72
2023/05/26 06:09:30;;;;;;;19.98;9.43;;;;;;;9.87;100.00;99580.50;4166503;28;20064;-72
2023/05/26 06:11:30;;;;;;;18.75;9.48;;;;;;;9.92;100.00;99571.16;4157898;28;20403;-72
2023/05/26 06:13:31;;;;;;;13.40;7.85;;;;;;;10.00;100.00;99573.00;4157653;28;20809;-72
2023/05/26 06:15:31;;;;;;;14.15;8.00;;;;;;;10.08;100.00;99577.59;4157650;28;20115;-72
2023/05/26 06:17:31;;;;;;;15.32;7.65;;;;;;;10.11;100.00;99577.72;4157604;28;20045;-72
2023/05/26 06:19:32;;;;;;;22.55;9.60;;;;;;;10.18;100.00;99581.81;4163929;28;20160;-72
2023/05/26 06:21:32;;;;;;;22.05;8.38;;;;;;;10.22;100.00;99582.75;4162156;28;20390;-72
2023/05/26 06:23:32;;;;;;;24.20;9.45;;;;;;;10.26;100.00;99581.75;4157045;28;20126;-72
2023/05/26 06:25:32;;;;;;;21.17;8.57;;;;;;;10.30;100.00;99584.63;4157722;28;20088;-72
2023/05/26 06:27:33;;;;;;;19.25;9.23;;;;;;;10.33;100.00;99584.72;4157859;28;20157;-72
2023/05/26 06:29:33;;;;;;;18.67;9.52;;;;;;;10.35;100.00;99584.38;4157725;28;20050;-72
2023/05/26 06:31:34;;;;;;;19.73;8.23;;;;;;;10.42;100.00;99584.56;4163489;28;20045;-72
2023/05/26 06:33:34;;;;;;;18.13;9.57;;;;;;;10.49;100.00;99586.75;4169281;28;20597;-72
2023/05/26 06:35:34;;;;;;;20.42;9.13;;;;;;;10.52;100.00;99583.31;4157961;28;20037;-72
2023/05/26 06:37:34;;;;;;;19.75;8.90;;;;;;;10.57;100.00;99578.31;4173200;28;20037;-72
2023/05/26 06:39:35;;;;;;;20.60;8.73;;;;;;;10.67;100.00;99579.75;4172436;28;20439;-72
2023/05/26 06:41:35;;;;;;;16.70;8.10;;;;;;;10.74;100.00;99579.16;4171955;28;20041;-72
2023/05/26 06:43:35;;;;;;;18.10;8.75;;;;;;;10.78;100.00;99582.84;4171455;28;20045;-72
2023/05/26 06:45:36;;;;;;;20.77;9.35;;;;;;;10.84;100.00;99586.97;4164017;28;20424;-72
2023/05/26 06:47:36;;;;;;;20.05;8.82;;;;;;;10.88;100.00;99587.88;4157610;28;20120;-72
2023/05/26 06:49:37;;;;;;;17.63;7.90;;;;;;;10.92;100.00;99586.84;4157016;28;20160;-72
2023/05/26 06:51:37;;;;;;;18.58;8.43;;;;;;;10.98;100.00;99590.13;4157837;28;20120;-72
2023/05/26 06:53:38;;;;;;;21.92;8.77;;;;;;;11.07;100.00;99584.44;4157110;28;20099;-72
2023/05/26 06:55:38;;;;;;;14.38;7.75;;;;;;;11.12;100.00;99579.44;4157254;28;20041;-72
2023/05/26 06:57:38;;;;;;;21.63;8.35;;;;;;;11.21;100.00;99577.31;4158295;28;20496;-72
2023/05/26 06:59:40;;;;;;;22.73;8.05;;;;;;;11.27;100.00;99586.19;4169168;28;20481;-72
2023/05/26 07:01:41;;;;;;;22.75;8.38;;;;;;;11.34;100.00;99583.59;4175544;28;20132;-72
2023/05/26 07:03:41;;;;;;;16.30;7.22;;;;;;;11.43;100.00;99584.22;4174496;28;20433;-72
2023/05/26 07:05:41;;;;;;;21.42;7.88;;;;;;;11.57;100.00;99580.19;4175194;28;20086;-72
2023/05/26 07:07:42;;;;;;;14.57;7.30;;;;;;;11.71;100.00;99591.63;4175144;28;20040;-72
2023/05/26 07:09:42;;;;;;;20.27;7.53;;;;;;;11.72;100.00;99585.72;4173796;28;20096;-72
2023/05/26 07:11:42;;;;;;;15.07;7.75;;;;;;;11.79;100.00;99588.69;4175177;28;20523;-72
2023/05/26 07:13:45;;;;;;;18.60;8.60;;;;;;;11.84;100.00;99584.06;4174736;28;20049;-72
2023/05/26 07:15:45;;;;;;;20.08;7.63;;;;;;;11.90;100.00;99582.59;4164243;28;20041;-72
2023/05/26 07:17:45;;;;;;;19.88;7.93;;;;;;;11.90;100.00;99588.16;4160139;28;20056;-72
2023/05/26 07:19:46;;;;;;;18.42;8.00;;;;;;;11.98;100.00;99581.63;4160488;28;20485;-72
2023/05/26 07:21:46;;;;;;;18.88;7.47;;;;;;;12.05;100.00;99585.34;4160607;28;20042;-72
2023/05/26 07:23:46;;;;;;;12.10;7.38;;;;;;;12.13;100.00;99585.53;4159705;28;20440;-72
2023/05/26 07:25:47;;;;;;;20.85;7.30;;;;;;;12.24;100.00;99583.78;4160143;28;20088;-72
2023/05/26 07:27:47;;;;;;;16.08;6.93;;;;;;;12.34;100.00;99586.03;4165184;28;20075;-72
2023/05/26 07:29:47;;;;;;;19.65;7.13;;;;;;;12.30;100.00;99580.38;4175409;28;20072;-72
2023/05/26 07:31:48;;;;;;;16.52;6.85;;;;;;;12.36;100.00;99587.25;4173951;28;20126;-72
2023/05/26 07:33:50;;;;;;;21.67;6.43;;;;;;;12.45;100.00;99586.25;4171917;28;20118;-72
2023/05/26 07:35:50;;;;;;;20.35;6.78;;;;;;;12.52;100.00;99592.75;4159922;28;20072;-72
2023/05/26 07:37:50;;;;;;;16.50;6.68;;;;;;;12.65;100.00;99596.19;4159806;28;20037;-72
2023/05/26 07:39:51;;;;;;;18.55;6.22;;;;;;;12.69;100.00;99585.97;4160360;28;20058;-72
2023/05/26 07:41:51;;;;;;;16.02;7.07;;;;;;;12.80;100.00;99592.53;4160212;28;20508;-72
2023/05/26 07:43:51;;;;;;;14.98;7.05;;;;;;;12.75;100.00;99589.25;4169935;28;20087;-72
2023/05/26 07:45:51;;;;;;;15.88;6.97;;;;;;;12.78;100.00;99585.75;4165854;28;20073;-72
2023/05/26 07:47:52;;;;;;;17.42;6.80;;;;;;;12.85;100.00;99585.88;4159798;28;20199;-72
2023/05/26 07:49:52;;;;;;;20.75;7.05;;;;;;;12.94;100.00;99581.72;4159759;28;20077;-72
2023/05/26 07:51:52;;;;;;;16.95;7.25;;;;;;;12.99;100.00;99583.41;4159725;28;20482;-72
2023/05/26 07:53:53;;;;;;;22.13;7.15;;;;;;;13.09;100.00;99587.56;4159430;28;20053;-72
2023/05/26 07:55:53;;;;;;;18.25;7.03;;;;;;;13.10;100.00;99587.19;4159963;28;20077;-72
2023/05/26 07:57:53;;;;;;;15.93;6.28;;;;;;;13.08;100.00;99586.75;4159887;28;20037;-72
2023/05/26 07:59:54;;;;;;;17.35;7.63;;;;;;;13.14;100.00;99585.25;4159888;28;20352;-72
2023/05/26 08:01:54;;;;;;;15.57;6.00;;;;;;;13.21;100.00;99579.06;4159593;28;20134;-72
2023/05/26 08:03:54;;;;;;;14.00;6.45;;;;;;;13.17;100.00;99578.19;4172209;28;20135;-72
2023/05/26 08:05:55;;;;;;;16.30;6.95;;;;;;;13.35;100.00;99584.88;4174677;28;20474;-72
2023/05/26 08:07:55;;;;;;;15.35;6.10;;;;;;;13.44;100.00;99579.09;4170584;28;20066;-72
2023/05/26 08:09:55;;;;;;;15.68;5.78;;;;;;;13.49;100.00;99587.94;4158081;28;20068;-72
2023/05/26 08:11:56;;;;;;;16.15;5.93;;;;;;;13.51;100.00;99573.66;4159707;28;20041;-72
2023/05/26 08:13:56;;;;;;;20.55;5.80;;;;;;;13.61;100.00;99586.94;4159132;28;20037;-72
2023/05/26 08:15:56;;;;;;;24.73;5.88;;;;;;;13.61;99.63;99581.38;4158972;28;20474;-72
2023/05/26 08:17:57;;;;;;;19.23;5.95;;;;;;;13.66;98.61;99588.59;4159457;28;20052;-72
2023/05/26 08:19:57;;;;;;;19.50;6.03;;;;;;;13.78;98.63;99588.41;4172019;28;20439;-72
2023/05/26 08:21:57;;;;;;;15.60;4.80;;;;;;;13.78;97.91;99577.28;4173715;28;20033;-72
2023/05/26 08:23:58;;;;;;;19.00;5.47;;;;;;;13.82;97.67;99588.44;4160023;28;20038;-72
2023/05/26 08:25:58;;;;;;;13.95;5.88;;;;;;;13.81;96.02;99581.28;4159441;28;20271;-72
2023/05/26 08:27:58;;;;;;;17.05;5.18;;;;;;;13.75;97.33;99583.59;4159702;28;20037;-72
2023/05/26 08:29:59;;;;;;;15.02;5.22;;;;;;;13.78;94.38;99582.84;4173581;28;20108;-72
2023/05/26 08:31:59;;;;;;;20.77;5.05;;;;;;;13.65;94.26;99584.19;4170698;28;20044;-72
2023/05/26 08:33:59;;;;;;;15.18;4.88;;;;;;;13.64;93.98;99580.59;4171211;28;20127;-72
2023/05/26 08:36:00;;;;;;;18.65;5.50;;;;;;;13.74;94.85;99573.63;4174007;28;20426;-72
2023/05/26 08:38:00;;;;;;;19.95;5.75;;;;;;;13.76;93.10;99583.22;4172615;28;20044;-72
2023/05/26 08:40:02;;;;;;;16.10;4.97;;;;;;;13.78;93.77;99572.50;4173445;28;20384;-72
2023/05/26 08:42:06;;;;;;;15.70;5.43;;;;;;;13.89;91.65;99575.44;4148904;28;20535;-73
2023/05/26 08:44:08;;;;;;;16.48;5.45;;;;;;;14.02;97.75;99579.63;4142336;28;20105;-73
2023/05/26 08:46:11;;;;;;;13.68;5.13;;;;;;;14.14;89.23;99575.03;4142591;28;20033;-73
2023/05/26 08:48:12;;;;;;;11.43;3.92;;;;;;;14.25;89.17;99573.22;4153259;28;20079;-72
2023/05/26 08:50:13;;;;;;;12.50;4.43;;;;;;;14.25;87.94;99579.59;4158208;28;20475;-72
2023/05/26 08:52:16;;;;;;;11.25;4.50;;;;;;;14.34;89.43;99570.97;4156675;28;20037;-72
2023/05/26 08:54:16;;;;;;;11.02;4.45;;;;;;;14.48;86.25;99579.53;4156883;28;20424;-73
2023/05/26 08:56:18;;;;;;;12.55;5.05;;;;;;;14.61;90.14;99574.53;4144708;28;20221;-72
2023/05/26 08:58:18;;;;;;;14.15;4.90;;;;;;;14.60;83.44;99575.69;4150356;28;20079;-72
2023/05/26 09:00:20;;;;;;;13.68;4.38;;;;;;;14.69;89.66;99583.78;4146035;28;20105;-72
2023/05/26 09:02:20;;;;;;;14.83;5.10;;;;;;;14.72;89.69;99578.22;4155550;28;20036;-73
2023/05/26 09:04:21;;;;;;;15.85;4.93;;;;;;;14.70;89.50;99577.81;4157816;28;20614;-72
2023/05/26 09:06:21;;;;;;;13.45;4.95;;;;;;;14.77;86.78;99577.09;4150102;28;20038;-72
2023/05/26 09:08:21;;;;;;;15.98;5.20;;;;;;;14.78;89.95;99582.28;4142462;28;20443;-72
2023/05/26 09:10:22;;;;;;;11.27;5.00;;;;;;;14.92;92.37;99581.66;4142506;28;20049;-72
2023/05/26 09:12:22;;;;;;;15.32;5.13;;;;;;;14.88;89.82;99578.03;4142125;28;20046;-72
2023/05/26 09:14:22;;;;;;;13.60;4.72;;;;;;;14.82;88.91;99568.41;4141735;28;20386;-72
2023/05/26 09:16:27;;;;;;;19.85;5.35;;;;;;;14.85;87.22;99571.25;4142337;28;20050;-72
2023/05/26 09:18:27;;;;;;;14.50;5.05;;;;;;;14.85;89.26;99574.03;4142767;28;20049;-72
2023/05/26 09:20:28;;;;;;;11.43;5.07;;;;;;;14.90;86.90;99578.47;4147626;28;20034;-72
2023/05/26 09:22:33;;;;;;;12.02;4.70;;;;;;;15.04;88.71;99577.81;4153298;28;20042;-72